Time;durP1;ratioP1;P1;durP2;ratioP2;P2;SDS_P1;SDS_P2;PMS_P1;PMS_P2;Temp;Humidity;BMP_temperature;BMP_pressure;BME280_temperature;BME280_humidity;BME280_pressure;Samples;Min_cycle;Max_cycle;Signal;HPM_P1;HPM_P2
2023/06/24 00:00:50;;;;;;;1.20;1.20;;;24.00;70.30;;;;;;5066342;28;43378;-71
2023/06/24 00:03:18;;;;;;;1.60;1.50;;;24.00;70.40;;;;;;5062981;28;43422;-70
2023/06/24 00:05:52;;;;;;;1.47;1.47;;;24.00;70.60;;;;;;5064220;28;43599;-70
2023/06/24 00:08:22;;;;;;;1.40;1.40;;;24.10;70.30;;;;;;5062196;28;43956;-70
2023/06/24 00:10:53;;;;;;;1.40;1.40;;;24.10;69.90;;;;;;5067526;28;43398;-70
2023/06/24 00:13:31;;;;;;;1.50;1.50;;;24.20;69.80;;;;;;5067849;28;43426;-70
2023/06/24 00:16:06;;;;;;;1.40;1.40;;;24.20;69.90;;;;;;5067348;28;43836;-70
2023/06/24 00:18:37;;;;;;;1.30;1.30;;;24.10;70.00;;;;;;5065591;28;44381;-70
2023/06/24 00:21:09;;;;;;;1.30;1.30;;;24.10;69.90;;;;;;5067575;28;43489;-71
2023/06/24 00:23:47;;;;;;;1.40;1.40;;;24.20;70.80;;;;;;5068470;28;43946;-71
2023/06/24 00:26:17;;;;;;;1.33;1.33;;;24.10;70.00;;;;;;5067557;28;43682;-71
2023/06/24 00:28:49;;;;;;;1.40;1.40;;;24.10;70.40;;;;;;5067259;28;43965;-70
2023/06/24 00:31:21;;;;;;;1.30;1.30;;;24.10;70.40;;;;;;5065996;28;43936;-71
2023/06/24 00:33:53;;;;;;;1.40;1.40;;;24.10;70.10;;;;;;5066855;28;43610;-70
2023/06/24 00:36:21;;;;;;;1.20;1.20;;;24.20;69.80;;;;;;5065558;28;45416;-70
2023/06/24 00:38:49;;;;;;;1.30;1.30;;;24.20;69.80;;;;;;5066002;28;43489;-70
2023/06/24 00:41:19;;;;;;;1.40;1.40;;;24.20;69.90;;;;;;5067804;28;43415;-70
2023/06/24 00:43:49;;;;;;;1.40;1.40;;;24.10;70.00;;;;;;5067636;28;43447;-71
2023/06/24 00:46:19;;;;;;;1.27;1.27;;;24.10;70.00;;;;;;5065439;28;45818;-71
2023/06/24 00:48:47;;;;;;;1.33;1.33;;;24.10;70.00;;;;;;5067360;28;43464;-71
2023/06/24 00:51:15;;;;;;;1.30;1.30;;;24.10;70.00;;;;;;5067230;28;43350;-71
2023/06/24 00:53:44;;;;;;;1.30;1.30;;;24.10;70.40;;;;;;5066153;28;43465;-71
2023/06/24 00:56:13;;;;;;;1.20;1.20;;;24.00;70.40;;;;;;5065527;28;45758;-71
2023/06/24 00:58:48;;;;;;;1.33;1.33;;;24.00;70.40;;;;;;5067196;28;43445;-72
2023/06/24 01:01:18;;;;;;;1.40;1.40;;;24.00;70.40;;;;;;5067777;28;43389;-75
2023/06/24 01:03:46;;;;;;;1.40;1.40;;;24.00;70.60;;;;;;5070773;22;43651;-76
2023/06/24 01:06:14;;;;;;;1.30;1.30;;;24.00;70.80;;;;;;5062639;28;43602;-77
2023/06/24 01:08:50;;;;;;;1.40;1.40;;;24.00;71.40;;;;;;5044848;28;45022;-77
2023/06/24 01:11:18;;;;;;;1.30;1.30;;;24.00;70.70;;;;;;5062125;28;43453;-76
2023/06/24 01:13:47;;;;;;;1.60;1.60;;;23.90;71.20;;;;;;5067257;28;43467;-76
2023/06/24 01:16:18;;;;;;;1.20;1.20;;;23.90;70.80;;;;;;5058212;28;45443;-77
2023/06/24 01:18:49;;;;;;;1.30;1.30;;;24.00;70.60;;;;;;5047808;28;44684;-76
2023/06/24 01:21:20;;;;;;;1.40;1.40;;;24.10;70.30;;;;;;5067722;28;43901;-77
2023/06/24 01:24:21;;;;;;;1.40;1.40;;;24.20;69.90;;;;;;5054388;28;43523;-77
2023/06/24 01:27:26;;;;;;;1.30;1.30;;;24.30;69.50;;;;;;5066127;28;43886;-77
2023/06/24 01:30:33;;;;;;;1.33;1.33;;;24.30;69.50;;;;;;5052874;28;43532;-76
2023/06/24 01:33:19;;;;;;;1.50;1.50;;;24.20;69.70;;;;;;5064165;28;43365;-76
2023/06/24 01:35:49;;;;;;;1.60;1.60;;;24.20;69.90;;;;;;5068021;28;43340;-77
2023/06/24 01:38:22;;;;;;;1.40;1.40;;;24.10;69.80;;;;;;5070533;28;43630;-74
2023/06/24 01:40:51;;;;;;;1.30;1.30;;;24.10;70.00;;;;;;5050181;28;44432;-77
2023/06/24 01:43:21;;;;;;;1.40;1.40;;;24.10;70.40;;;;;;5067106;28;43511;-77
2023/06/24 01:45:51;;;;;;;1.33;1.33;;;24.00;70.30;;;;;;5078182;28;43538;-76
2023/06/24 01:48:24;;;;;;;1.20;1.20;;;24.00;70.30;;;;;;5068365;28;43703;-77
2023/06/24 01:51:00;;;;;;;1.30;1.30;;;24.00;70.40;;;;;;5067843;28;43402;-76
2023/06/24 01:53:34;;;;;;;1.40;1.40;;;24.00;70.50;;;;;;5054957;28;43458;-76
2023/06/24 01:56:04;;;;;;;1.37;1.37;;;23.90;70.70;;;;;;5045536;28;43436;-75
2023/06/24 01:58:44;;;;;;;1.30;1.30;;;24.00;70.40;;;;;;5060417;28;45421;-75
2023/06/24 02:01:13;;;;;;;1.20;1.20;;;24.10;70.10;;;;;;5060274;28;44067;-76
2023/06/24 02:03:46;;;;;;;1.40;1.40;;;24.20;69.70;;;;;;5067912;28;43456;-75
2023/06/24 02:06:19;;;;;;;1.30;1.30;;;24.30;69.40;;;;;;5053851;28;43478;-76
2023/06/24 02:08:49;;;;;;;1.20;1.20;;;24.30;69.30;;;;;;5087458;28;45717;-73
2023/06/24 02:11:17;;;;;;;1.17;1.17;;;24.30;69.30;;;;;;5058867;28;44424;-78
2023/06/24 02:13:47;;;;;;;1.30;1.30;;;24.20;69.70;;;;;;5049163;28;43858;-75
2023/06/24 02:16:16;;;;;;;1.50;1.50;;;24.20;69.80;;;;;;5078197;28;43953;-78
2023/06/24 02:18:48;;;;;;;1.30;1.30;;;24.10;69.70;;;;;;5073125;28;43836;-75
2023/06/24 02:21:18;;;;;;;1.30;1.30;;;24.10;70.00;;;;;;5086866;28;44508;-75
2023/06/24 02:23:48;;;;;;;1.60;1.50;;;24.00;70.20;;;;;;5071561;28;43364;-76
2023/06/24 02:26:16;;;;;;;1.20;1.20;;;24.00;70.40;;;;;;5071956;28;43373;-78
2023/06/24 02:28:46;;;;;;;1.40;1.40;;;24.00;70.30;;;;;;5071179;28;43785;-76
2023/06/24 02:31:14;;;;;;;1.20;1.20;;;24.00;70.40;;;;;;5072207;28;43444;-76
2023/06/24 02:34:20;;;;;;;1.30;1.30;;;24.00;70.40;;;;;;5055496;28;43486;-76
2023/06/24 02:36:51;;;;;;;1.50;1.50;;;23.90;70.60;;;;;;5050496;28;43552;-75
2023/06/24 02:39:20;;;;;;;1.20;1.20;;;23.90;70.60;;;;;;5071392;28;43845;-72
2023/06/24 02:41:50;;;;;;;1.30;1.30;;;23.90;70.70;;;;;;5071170;28;43338;-77
2023/06/24 02:44:19;;;;;;;1.40;1.40;;;23.90;70.50;;;;;;5053366;28;43455;-77
2023/06/24 02:46:48;;;;;;;1.40;1.40;;;23.90;71.00;;;;;;5058396;28;43490;-76
2023/06/24 02:49:20;;;;;;;1.40;1.40;;;23.90;70.50;;;;;;5084668;28;45375;-75
2023/06/24 02:51:49;;;;;;;1.20;1.20;;;24.00;70.20;;;;;;5052784;28;44696;-76
2023/06/24 02:54:28;;;;;;;1.20;1.20;;;24.20;69.80;;;;;;5055566;28;43537;-76
2023/06/24 02:57:20;;;;;;;1.20;1.20;;;24.30;69.60;;;;;;5063337;28;43812;-77
2023/06/24 03:00:12;;;;;;;1.50;1.50;;;24.30;69.50;;;;;;5051943;28;44002;-76
2023/06/24 03:03:00;;;;;;;1.50;1.50;;;24.20;69.50;;;;;;5070010;28;43326;-77
2023/06/24 03:05:37;;;;;;;1.50;1.50;;;24.10;69.80;;;;;;5070842;28;43366;-76
2023/06/24 03:08:07;;;;;;;1.40;1.40;;;24.10;69.90;;;;;;5063452;28;43502;-76
2023/06/24 03:10:47;;;;;;;1.23;1.23;;;24.10;70.00;;;;;;5051604;28;44049;-76
2023/06/24 03:13:20;;;;;;;1.40;1.40;;;24.00;70.00;;;;;;5049948;28;44701;-76
2023/06/24 03:15:54;;;;;;;1.33;1.33;;;24.00;70.50;;;;;;5053288;28;43997;-77
2023/06/24 03:18:22;;;;;;;1.53;1.53;;;24.00;70.40;;;;;;5050770;28;43575;-75
2023/06/24 03:20:52;;;;;;;1.60;1.50;;;24.00;70.40;;;;;;5051549;28;45996;-78
2023/06/24 03:23:24;;;;;;;1.70;1.70;;;24.00;70.40;;;;;;5050649;28;44083;-78
2023/06/24 03:25:56;;;;;;;4.77;2.80;;;23.90;70.50;;;;;;5050129;28;43448;-77
2023/06/24 03:28:24;;;;;;;5.17;3.20;;;23.90;70.50;;;;;;5044816;28;43437;-76
2023/06/24 03:31:10;;;;;;;8.07;3.50;;;24.00;70.30;;;;;;5065286;28;45009;-77
2023/06/24 03:33:44;;;;;;;8.67;3.80;;;24.10;69.90;;;;;;5050902;28;43992;-76
2023/06/24 03:36:15;;;;;;;10.27;4.63;;;24.20;69.60;;;;;;5052873;28;43523;-77
2023/06/24 03:38:46;;;;;;;5.97;4.10;;;24.30;69.30;;;;;;5064219;28;43533;-76
2023/06/24 03:41:14;;;;;;;4.50;3.80;;;24.20;69.40;;;;;;5069188;28;43657;-77
2023/06/24 03:43:47;;;;;;;10.13;5.90;;;24.20;69.50;;;;;;5068543;28;43459;-77
2023/06/24 03:46:15;;;;;;;10.13;5.97;;;24.10;69.80;;;;;;5054053;28;43453;-77
2023/06/24 03:48:51;;;;;;;10.80;5.30;;;24.10;69.90;;;;;;5057901;28;44033;-76
2023/06/24 03:51:30;;;;;;;7.47;4.30;;;24.10;70.00;;;;;;5069222;28;44036;-76
2023/06/24 03:54:00;;;;;;;9.43;5.23;;;24.00;70.00;;;;;;5067518;28;44567;-78
2023/06/24 03:56:32;;;;;;;11.60;5.77;;;24.00;70.30;;;;;;5053642;28;43478;-76
2023/06/24 03:59:07;;;;;;;9.30;4.90;;;24.00;70.30;;;;;;5051837;28;43587;-78
2023/06/24 04:01:39;;;;;;;8.57;4.80;;;24.00;70.50;;;;;;5054079;28;45902;-76
2023/06/24 04:04:10;;;;;;;10.80;5.47;;;24.00;70.30;;;;;;5054296;28;44684;-76
2023/06/24 04:06:48;;;;;;;10.37;6.13;;;23.90;70.60;;;;;;5069156;28;43478;-77
2023/06/24 04:09:17;;;;;;;8.33;5.47;;;23.90;70.70;;;;;;5056464;28;43479;-77
2023/06/24 04:11:46;;;;;;;9.23;5.27;;;23.90;70.80;;;;;;5052064;28;46003;-77
2023/06/24 04:14:19;;;;;;;10.33;5.83;;;23.90;70.50;;;;;;5057485;28;44557;-77
2023/06/24 04:16:58;;;;;;;12.57;6.53;;;23.90;70.60;;;;;;5053786;28;43449;-77
2023/06/24 04:19:41;;;;;;;11.03;6.40;;;23.90;70.90;;;;;;5074134;28;43404;-76
2023/06/24 04:22:13;;;;;;;11.77;6.63;;;23.90;70.70;;;;;;5049808;28;45506;-74
2023/06/24 04:24:44;;;;;;;10.60;6.43;;;24.00;70.20;;;;;;5067590;28;43408;-76
2023/06/24 04:27:13;;;;;;;10.23;6.60;;;24.10;69.80;;;;;;5068542;28;43415;-77
2023/06/24 04:29:48;;;;;;;11.77;6.33;;;24.20;69.60;;;;;;5081955;28;43386;-76
2023/06/24 04:32:16;;;;;;;11.50;6.00;;;24.30;69.60;;;;;;5049773;28;45286;-76
2023/06/24 04:34:48;;;;;;;10.37;6.20;;;24.20;69.60;;;;;;5049763;28;44442;-77
2023/06/24 04:37:18;;;;;;;11.00;6.53;;;24.10;69.90;;;;;;5060959;28;43440;-77
2023/06/24 04:39:48;;;;;;;11.00;6.60;;;24.10;70.00;;;;;;5051683;28;43525;-77
2023/06/24 04:42:16;;;;;;;9.73;6.37;;;24.10;70.20;;;;;;5067927;28;43880;-77
2023/06/24 04:44:45;;;;;;;8.10;5.80;;;24.00;70.00;;;;;;5068387;28;43504;-77
2023/06/24 04:47:14;;;;;;;9.70;6.27;;;24.00;70.30;;;;;;5050924;28;43398;-76
2023/06/24 04:49:45;;;;;;;11.77;6.70;;;24.00;70.50;;;;;;5067988;28;43405;-77
2023/06/24 04:52:14;;;;;;;9.27;6.53;;;24.00;70.30;;;;;;5067479;28;43695;-77
2023/06/24 04:54:47;;;;;;;9.07;6.17;;;24.10;70.10;;;;;;5067703;28;43400;-75
2023/06/24 04:57:24;;;;;;;8.40;6.10;;;24.20;69.80;;;;;;5049964;28;43721;-76
2023/06/24 04:59:55;;;;;;;10.97;6.27;;;24.20;69.70;;;;;;5050711;28;44108;-75
2023/06/24 05:02:23;;;;;;;9.07;5.80;;;24.20;69.60;;;;;;5055038;28;45890;-78
2023/06/24 05:04:52;;;;;;;10.67;6.57;;;24.10;69.60;;;;;;5068215;28;44662;-76
2023/06/24 05:07:20;;;;;;;7.67;6.27;;;24.10;70.00;;;;;;5068127;28;43409;-76
2023/06/24 05:09:50;;;;;;;8.00;6.23;;;24.00;70.00;;;;;;5068633;28;43546;-76
2023/06/24 05:12:19;;;;;;;6.87;5.00;;;24.00;70.10;;;;;;5068720;28;43598;-76
2023/06/24 05:14:50;;;;;;;6.97;5.83;;;24.00;70.00;;;;;;5061616;28;44654;-76
2023/06/24 05:17:18;;;;;;;8.27;5.87;;;23.90;70.40;;;;;;5068015;28;43499;-78
2023/06/24 05:19:48;;;;;;;8.97;5.90;;;23.90;70.60;;;;;;5068739;28;43951;-76
2023/06/24 05:22:17;;;;;;;6.50;5.37;;;23.90;70.60;;;;;;5068794;28;43598;-78
2023/06/24 05:24:45;;;;;;;8.80;5.83;;;23.90;70.40;;;;;;5068315;28;43441;-78
2023/06/24 05:27:18;;;;;;;7.87;5.50;;;23.90;70.50;;;;;;5068120;28;43353;-75
2023/06/24 05:29:49;;;;;;;8.50;5.57;;;23.90;70.90;;;;;;5068515;28;43389;-76
2023/06/24 05:32:19;;;;;;;8.63;5.70;;;23.90;70.70;;;;;;5069875;28;43611;-76
2023/06/24 05:34:51;;;;;;;6.43;5.57;;;24.00;70.40;;;;;;5071316;28;43911;-76
2023/06/24 05:37:19;;;;;;;7.77;5.80;;;24.10;70.00;;;;;;5077117;28;43461;-77
2023/06/24 05:43:30;;;;;;;5.43;4.93;;;24.10;69.70;;;;;;5070850;28;43846;-76
2023/06/24 05:46:41;;;;;;;6.67;5.30;;;24.10;69.90;;;;;;5049953;28;44430;-77
2023/06/24 05:49:40;;;;;;;6.53;5.77;;;24.00;70.20;;;;;;5071448;28;43457;-75
2023/06/24 05:52:17;;;;;;;6.27;5.30;;;24.00;70.30;;;;;;5072624;28;43460;-76
2023/06/24 05:55:13;;;;;;;6.00;5.40;;;24.00;70.30;;;;;;5060182;28;43837;-76
2023/06/24 05:58:16;;;;;;;;;;;;;;;;;;;;;
2023/06/24 06:01:01;;;;;;;5.77;5.27;;;23.90;70.70;;;;;;5070969;28;43923;-76
2023/06/24 06:03:45;;;;;;;5.60;4.97;;;24.00;70.40;;;;;;5070554;28;43405;-76
2023/06/24 06:06:16;;;;;;;5.57;5.07;;;24.00;70.10;;;;;;5071123;28;43887;-77
2023/06/24 06:08:47;;;;;;;5.40;4.67;;;24.00;70.10;;;;;;5071041;28;43475;-77
2023/06/24 06:11:17;;;;;;;5.77;5.17;;;24.00;70.20;;;;;;5071022;28;43354;-77
2023/06/24 06:13:53;;;;;;;5.60;5.10;;;24.00;70.40;;;;;;5052181;28;43519;-77
2023/06/24 06:16:26;;;;;;;6.10;5.50;;;24.00;70.30;;;;;;5052605;28;45369;-77
2023/06/24 06:19:17;;;;;;;5.13;4.67;;;24.00;70.40;;;;;;5047428;28;43428;-77
2023/06/24 06:21:59;;;;;;;5.77;5.23;;;23.90;70.20;;;;;;5056460;28;43476;-77
2023/06/24 06:24:35;;;;;;;5.07;4.67;;;23.90;70.70;;;;;;5071481;28;43441;-77
2023/06/24 06:27:12;;;;;;;5.33;4.83;;;23.90;70.70;;;;;;5072167;28;43588;-76
2023/06/24 06:29:49;;;;;;;5.83;5.23;;;23.90;70.70;;;;;;5071473;28;43466;-76
2023/06/24 06:32:21;;;;;;;5.70;5.20;;;23.80;70.50;;;;;;5052553;28;43383;-76
2023/06/24 06:34:54;;;;;;;4.77;4.40;;;23.80;70.90;;;;;;5070495;28;43463;-77
2023/06/24 06:37:31;;;;;;;4.60;4.20;;;23.90;70.80;;;;;;5053885;28;45670;-77
2023/06/24 06:40:40;;;;;;;5.17;4.67;;;24.00;70.50;;;;;;5052619;28;43513;-77
2023/06/24 06:43:37;;;;;;;5.13;4.70;;;24.10;70.10;;;;;;5068478;28;43398;-76
2023/06/24 06:46:47;;;;;;;5.20;4.73;;;24.10;70.00;;;;;;5052862;28;43590;-77
2023/06/24 06:49:56;;;;;;;4.97;4.57;;;24.10;70.70;;;;;;5053059;28;43746;-76
2023/06/24 06:52:41;;;;;;;5.10;4.70;;;24.00;70.40;;;;;;5066289;28;43440;-76
2023/06/24 06:55:14;;;;;;;4.77;4.37;;;24.00;70.50;;;;;;5052954;28;43462;-76
2023/06/24 06:57:55;;;;;;;4.80;4.43;;;23.90;70.40;;;;;;5072158;28;43399;-77
2023/06/24 07:00:35;;;;;;;4.77;4.40;;;23.90;70.40;;;;;;5066238;28;43742;-76
2023/06/24 07:03:03;;;;;;;4.93;4.60;;;23.80;70.80;;;;;;5066607;28;43424;-76
2023/06/24 07:05:44;;;;;;;4.70;4.40;;;23.80;70.90;;;;;;5055429;28;43436;-77
2023/06/24 07:08:40;;;;;;;3.97;3.77;;;23.80;70.80;;;;;;5053797;28;43492;-77
2023/06/24 07:11:53;;;;;;;4.50;4.20;;;23.80;70.70;;;;;;5049045;28;43663;-76
2023/06/24 07:14:38;;;;;;;4.90;4.60;;;23.70;71.10;;;;;;5049252;28;43368;-77
2023/06/24 07:17:06;;;;;;;3.90;3.70;;;23.80;70.90;;;;;;5050261;28;43420;-77
2023/06/24 07:19:36;;;;;;;4.67;4.20;;;23.90;70.60;;;;;;5049749;28;43490;-76
2023/06/24 07:22:07;;;;;;;4.30;4.00;;;24.00;70.10;;;;;;5032067;28;45383;-77
2023/06/24 07:24:38;;;;;;;4.20;3.90;;;24.10;69.90;;;;;;5050799;28;43413;-77
2023/06/24 07:27:08;;;;;;;4.40;4.10;;;24.10;69.90;;;;;;5050730;28;43384;-77
2023/06/24 07:29:51;;;;;;;4.40;4.10;;;24.10;70.00;;;;;;5033769;28;43454;-77
2023/06/24 07:32:22;;;;;;;4.70;4.30;;;24.00;70.30;;;;;;5050065;28;44500;-78
2023/06/24 07:34:55;;;;;;;4.40;4.10;;;24.00;70.40;;;;;;5032315;28;44644;-77
2023/06/24 07:37:33;;;;;;;4.40;4.10;;;24.00;70.50;;;;;;5043238;28;43838;-77
2023/06/24 07:40:17;;;;;;;4.53;4.23;;;23.90;70.30;;;;;;5034678;28;43403;-77
2023/06/24 07:42:49;;;;;;;4.10;3.90;;;23.90;70.80;;;;;;5055594;28;43608;-77
2023/06/24 07:45:17;;;;;;;4.10;3.90;;;23.80;70.80;;;;;;5050917;28;43431;-77
2023/06/24 07:47:47;;;;;;;3.70;3.50;;;23.80;70.90;;;;;;5051127;28;43367;-77
2023/06/24 07:50:24;;;;;;;3.90;3.70;;;23.80;70.70;;;;;;5052224;28;43493;-76
2023/06/24 07:52:59;;;;;;;4.57;4.30;;;23.70;70.90;;;;;;5050629;28;43861;-78
2023/06/24 07:55:34;;;;;;;3.67;3.47;;;23.70;71.20;;;;;;5049377;28;43384;-78
2023/06/24 07:58:05;;;;;;;3.87;3.57;;;23.80;70.90;;;;;;5027408;28;43559;-76
2023/06/24 08:00:36;;;;;;;4.50;4.30;;;23.90;70.60;;;;;;5052333;28;43427;-78
2023/06/24 08:03:10;;;;;;;3.97;3.77;;;24.00;70.30;;;;;;5048066;28;43572;-77
2023/06/24 08:05:44;;;;;;;3.70;3.50;;;24.10;70.00;;;;;;5061573;28;43472;-75
2023/06/24 08:08:13;;;;;;;3.87;3.67;;;24.10;70.00;;;;;;5054592;28;43415;-76
2023/06/24 08:10:43;;;;;;;4.10;3.80;;;24.00;70.00;;;;;;5050939;28;43470;-72
2023/06/24 08:13:12;;;;;;;4.07;3.77;;;24.00;70.50;;;;;;5058451;28;43904;-76
2023/06/24 08:15:43;;;;;;;4.10;3.90;;;23.90;70.40;;;;;;5061273;28;43435;-76
2023/06/24 08:18:12;;;;;;;4.10;3.80;;;23.90;70.50;;;;;;5057514;28;43424;-75
2023/06/24 08:20:43;;;;;;;4.00;3.80;;;23.90;70.40;;;;;;5062422;28;43477;-76
2023/06/24 08:23:15;;;;;;;3.80;3.60;;;23.80;70.80;;;;;;5059186;28;43895;-76
2023/06/24 08:25:48;;;;;;;3.93;3.73;;;23.80;70.90;;;;;;5062262;28;43545;-76
2023/06/24 08:28:17;;;;;;;3.90;3.70;;;23.80;70.90;;;;;;5057374;28;43341;-75
2023/06/24 08:30:47;;;;;;;4.07;3.87;;;23.70;70.60;;;;;;5066894;28;43378;-78
2023/06/24 08:33:15;;;;;;;4.20;4.00;;;23.70;70.90;;;;;;5063687;28;43876;-76
2023/06/24 08:35:47;;;;;;;3.77;3.60;;;23.70;71.20;;;;;;5064197;28;43720;-76
2023/06/24 08:38:17;;;;;;;4.37;4.07;;;23.80;71.00;;;;;;5057109;28;43486;-76
2023/06/24 08:40:45;;;;;;;3.87;3.67;;;23.90;70.70;;;;;;5062940;28;43363;-78
2023/06/24 08:43:13;;;;;;;3.57;3.40;;;24.00;70.30;;;;;;5053195;28;43848;-75
2023/06/24 08:45:47;;;;;;;3.80;3.60;;;24.10;70.10;;;;;;5050862;28;43395;-76
2023/06/24 08:48:27;;;;;;;3.93;3.60;;;24.00;69.90;;;;;;5064140;28;43509;-77
2023/06/24 08:51:15;;;;;;;4.43;4.13;;;24.00;70.00;;;;;;5058114;28;43437;-76
2023/06/24 08:53:50;;;;;;;3.53;3.43;;;23.90;70.30;;;;;;5053310;28;43830;-76
2023/06/24 08:56:21;;;;;;;3.63;3.43;;;23.90;70.40;;;;;;5068267;28;43512;-76
2023/06/24 08:58:59;;;;;;;3.50;3.30;;;23.90;70.40;;;;;;5063443;28;43427;-77
2023/06/24 09:01:34;;;;;;;3.20;3.10;;;23.80;70.30;;;;;;5062748;28;43519;-76
2023/06/24 09:04:07;;;;;;;3.40;3.30;;;23.80;70.70;;;;;;5062611;28;44180;-77
2023/06/24 09:06:47;;;;;;;3.40;3.30;;;23.80;70.90;;;;;;5063810;28;43565;-76
2023/06/24 09:09:23;;;;;;;3.23;3.13;;;23.80;70.90;;;;;;5055048;28;43359;-76
2023/06/24 09:12:04;;;;;;;3.90;3.70;;;23.70;70.70;;;;;;5071276;28;43453;-77
2023/06/24 09:14:41;;;;;;;3.90;3.70;;;23.70;71.10;;;;;;5064585;28;43816;-76
2023/06/24 09:17:15;;;;;;;3.13;3.03;;;23.70;71.20;;;;;;5067339;28;43442;-76
2023/06/24 09:19:53;;;;;;;3.50;3.40;;;23.70;71.20;;;;;;5060183;28;43347;-77
2023/06/24 09:22:21;;;;;;;3.40;3.20;;;23.70;71.00;;;;;;5061851;28;44053;-76
2023/06/24 09:24:55;;;;;;;3.20;3.10;;;23.60;71.10;;;;;;5061294;28;43970;-77
2023/06/24 09:27:28;;;;;;;3.47;3.37;;;23.60;71.40;;;;;;5059094;28;44204;-74
2023/06/24 09:30:06;;;;;;;3.77;3.57;;;23.70;71.20;;;;;;5058813;28;43443;-77
2023/06/24 09:32:42;;;;;;;3.23;3.13;;;23.80;70.70;;;;;;5066878;28;43377;-77
2023/06/24 09:35:14;;;;;;;3.07;2.97;;;23.90;70.30;;;;;;5065701;28;43840;-77
2023/06/24 09:37:57;;;;;;;3.10;3.00;;;24.00;70.00;;;;;;5068033;28;43380;-76
2023/06/24 09:41:02;;;;;;;3.23;3.13;;;24.10;70.00;;;;;;5065892;28;43502;-76
2023/06/24 09:43:53;;;;;;;3.40;3.30;;;24.00;70.00;;;;;;5054037;28;43921;-76
2023/06/24 09:46:44;;;;;;;3.40;3.30;;;23.90;70.30;;;;;;5061435;28;46074;-78
2023/06/24 09:49:36;;;;;;;3.30;3.20;;;23.90;70.40;;;;;;5057722;28;44700;-76
2023/06/24 09:52:16;;;;;;;3.20;3.10;;;23.90;70.30;;;;;;5061987;28;43458;-76
2023/06/24 09:55:05;;;;;;;3.37;3.27;;;23.80;70.30;;;;;;5066352;28;43495;-77
2023/06/24 09:58:01;;;;;;;3.30;3.20;;;23.80;70.90;;;;;;5060798;28;43709;-74
2023/06/24 10:00:52;;;;;;;3.10;3.00;;;23.70;70.80;;;;;;5061907;28;43434;-77
2023/06/24 10:03:43;;;;;;;3.83;3.63;;;23.70;70.60;;;;;;5065109;28;43521;-77
2023/06/24 10:06:42;;;;;;;3.07;2.97;;;23.70;70.80;;;;;;5071174;28;43551;-76
2023/06/24 10:09:47;;;;;;;3.20;3.10;;;23.70;71.20;;;;;;5068383;28;43889;-77
2023/06/24 10:12:41;;;;;;;2.90;2.80;;;23.80;70.90;;;;;;5070969;28;43398;-78
2023/06/24 10:15:44;;;;;;;3.03;2.93;;;23.90;70.50;;;;;;5072188;28;43421;-76
2023/06/24 10:18:49;;;;;;;3.20;3.10;;;24.00;70.30;;;;;;5069453;28;43345;-77
2023/06/24 10:21:25;;;;;;;2.73;2.63;;;24.00;70.10;;;;;;5054482;28;45731;-75
2023/06/24 10:24:11;;;;;;;3.70;3.50;;;23.90;70.00;;;;;;5071108;28;43411;-76
2023/06/24 10:26:55;;;;;;;3.13;3.03;;;23.90;70.60;;;;;;5071874;28;43491;-76
2023/06/24 10:29:35;;;;;;;2.50;2.50;;;23.90;70.60;;;;;;5073333;28;43463;-76
2023/06/24 10:32:10;;;;;;;2.57;2.50;;;23.80;70.40;;;;;;5072708;28;43834;-76
2023/06/24 10:34:47;;;;;;;2.83;2.73;;;23.80;70.40;;;;;;5071349;28;43790;-76
2023/06/24 10:37:20;;;;;;;3.10;3.00;;;23.70;70.90;;;;;;5072382;28;43394;-77
2023/06/24 10:39:51;;;;;;;2.90;2.80;;;23.80;70.90;;;;;;5071791;28;43708;-76
2023/06/24 10:42:29;;;;;;;2.60;2.60;;;23.90;70.70;;;;;;5070436;28;43990;-78
2023/06/24 10:45:00;;;;;;;3.03;2.93;;;23.90;70.40;;;;;;5072201;28;43459;-76
2023/06/24 10:47:34;;;;;;;2.90;2.80;;;23.90;70.30;;;;;;5077613;28;43328;-76
2023/06/24 10:50:32;;;;;;;3.13;2.90;;;23.90;70.60;;;;;;5072464;28;43418;-76
2023/06/24 10:53:11;;;;;;;2.63;2.60;;;23.90;70.50;;;;;;5074195;28;43840;-75
2023/06/24 10:55:51;;;;;;;3.13;3.03;;;23.90;70.50;;;;;;5073367;28;43455;-76
2023/06/24 10:58:19;;;;;;;3.00;2.90;;;23.80;70.10;;;;;;5073808;28;43351;-77
2023/06/24 11:00:52;;;;;;;3.03;2.90;;;23.80;70.20;;;;;;5074135;28;43344;-77
2023/06/24 11:03:27;;;;;;;2.83;2.73;;;23.80;70.80;;;;;;5072989;28;43741;-76
2023/06/24 11:05:57;;;;;;;3.20;3.00;;;23.80;70.70;;;;;;5060993;28;43386;-74
2023/06/24 11:09:02;;;;;;;2.77;2.67;;;23.70;70.40;;;;;;5058226;28;43462;-75
2023/06/24 11:11:42;;;;;;;2.83;2.73;;;23.70;70.40;;;;;;5002098;28;43406;-76
2023/06/24 11:14:31;;;;;;;2.80;2.70;;;23.70;70.90;;;;;;5062096;28;45301;-77
2023/06/24 11:17:23;;;;;;;2.80;2.70;;;23.70;70.80;;;;;;5063336;28;43449;-77
2023/06/24 11:19:55;;;;;;;3.00;2.90;;;23.90;70.40;;;;;;5063918;28;43418;-77
2023/06/24 11:22:23;;;;;;;2.90;2.70;;;24.00;70.30;;;;;;5060551;28;43506;-76
2023/06/24 11:24:56;;;;;;;2.63;2.60;;;24.00;70.10;;;;;;5062340;28;46027;-76
2023/06/24 11:27:30;;;;;;;2.90;2.80;;;24.00;70.00;;;;;;5060181;28;44895;-76
2023/06/24 11:30:09;;;;;;;3.03;2.93;;;23.90;69.90;;;;;;5066693;28;43529;-76
2023/06/24 11:33:02;;;;;;;2.70;2.70;;;23.80;70.50;;;;;;5060494;28;44098;-76
2023/06/24 11:36:18;;;;;;;2.50;2.50;;;23.80;70.50;;;;;;5058261;28;43801;-76
2023/06/24 11:39:06;;;;;;;2.83;2.73;;;23.80;70.30;;;;;;5063453;28;44427;-77
2023/06/24 11:41:53;;;;;;;2.67;2.57;;;23.70;70.60;;;;;;5055795;28;43442;-77
2023/06/24 11:44:40;;;;;;;2.93;2.73;;;23.70;70.90;;;;;;5064972;28;43414;-77
2023/06/24 11:47:35;;;;;;;3.07;2.97;;;23.80;70.70;;;;;;5056792;28;43567;-77
2023/06/24 11:53:58;;;;;;;2.70;2.60;;;24.00;70.00;;;;;;5059761;28;44240;-77
2023/06/24 11:56:52;;;;;;;2.70;2.60;;;24.00;70.00;;;;;;5057278;28;43428;-77
2023/06/24 11:59:47;;;;;;;2.50;2.40;;;23.90;70.00;;;;;;5061644;28;43866;-78
2023/06/24 12:02:31;;;;;;;2.63;2.53;;;23.90;70.50;;;;;;5065395;28;43486;-77
2023/06/24 12:05:45;;;;;;;2.93;2.83;;;23.90;70.50;;;;;;5067023;28;43455;-76
2023/06/24 12:08:37;;;;;;;2.63;2.53;;;23.80;70.20;;;;;;5054774;28;43599;-78
2023/06/24 12:11:35;;;;;;;2.70;2.60;;;23.70;70.80;;;;;;5059942;28;43835;-77
2023/06/24 12:14:44;;;;;;;2.57;2.50;;;23.70;70.80;;;;;;5056048;28;43966;-76
2023/06/24 12:17:36;;;;;;;2.60;2.60;;;23.70;70.60;;;;;;5057339;28;43409;-76
2023/06/24 12:20:38;;;;;;;2.70;2.60;;;23.70;70.50;;;;;;5060199;28;43415;-77
2023/06/24 12:23:40;;;;;;;2.80;2.70;;;23.70;71.20;;;;;;5061072;28;43833;-76
2023/06/24 12:26:51;;;;;;;2.30;2.30;;;23.70;71.00;;;;;;5064613;28;43433;-75
2023/06/24 12:29:36;;;;;;;2.80;2.70;;;23.90;70.50;;;;;;5067210;28;43473;-76
2023/06/24 12:32:39;;;;;;;2.27;2.27;;;24.00;70.20;;;;;;5065197;28;43465;-76
2023/06/24 12:35:33;;;;;;;2.80;2.70;;;24.00;70.00;;;;;;5059709;28;43908;-78
2023/06/24 12:38:26;;;;;;;2.13;2.13;;;24.00;69.90;;;;;;5072229;28;43490;-71
2023/06/24 12:41:24;;;;;;;2.40;2.40;;;23.90;70.30;;;;;;5056342;28;43397;-75
2023/06/24 12:44:24;;;;;;;2.67;2.57;;;23.90;70.40;;;;;;5070068;28;43446;-78
2023/06/24 12:47:39;;;;;;;2.47;2.47;;;23.80;70.30;;;;;;5018624;28;43672;-78
2023/06/24 12:51:04;;;;;;;16.70;3.07;;;23.80;70.00;;;;;;5063452;28;43514;-77
2023/06/24 12:54:30;;;;;;;2.73;2.53;;;23.70;70.70;;;;;;5061920;28;43433;-76
2023/06/24 12:57:49;;;;;;;2.87;2.67;;;23.70;70.50;;;;;;5056126;28;43510;-73
2023/06/24 13:00:42;;;;;;;2.50;2.40;;;23.70;70.10;;;;;;5066684;28;45783;-78
2023/06/24 13:03:53;;;;;;;5.03;2.80;;;23.60;70.80;;;;;;5043846;28;44542;-77
2023/06/24 13:07:03;;;;;;;3.87;2.30;;;23.70;70.70;;;;;;5066378;28;43410;-77
2023/06/24 13:13:21;;;;;;;2.73;2.57;;;24.00;70.00;;;;;;5057173;28;43827;-76
2023/06/24 13:16:10;;;;;;;2.50;2.47;;;24.00;69.80;;;;;;5067637;28;43320;-76
2023/06/24 13:19:02;;;;;;;2.63;2.43;;;24.00;69.70;;;;;;5064153;28;43493;-77
2023/06/24 13:21:49;;;;;;;2.40;2.33;;;23.90;70.10;;;;;;5064827;28;43543;-76
2023/06/24 13:24:44;;;;;;;2.50;2.40;;;23.90;70.40;;;;;;5065233;28;44218;-77
2023/06/24 13:27:34;;;;;;;2.60;2.60;;;23.80;70.20;;;;;;5061251;28;43418;-76
2023/06/24 13:30:46;;;;;;;2.47;2.40;;;23.80;70.00;;;;;;5064249;28;43440;-78
2023/06/24 13:33:33;;;;;;;2.40;2.20;;;23.70;70.60;;;;;;5065254;28;43336;-77
2023/06/24 13:39:49;;;;;;;2.37;2.17;;;23.70;70.30;;;;;;5064246;28;44765;-76
2023/06/24 13:42:43;;;;;;;2.30;2.20;;;23.70;70.50;;;;;;5066317;28;43555;-78
2023/06/24 13:45:44;;;;;;;2.40;2.30;;;23.70;70.70;;;;;;5063782;28;43431;-78
2023/06/24 13:48:39;;;;;;;2.57;2.43;;;23.70;70.60;;;;;;5061748;28;43597;-78
2023/06/24 13:51:28;;;;;;;2.30;2.20;;;23.90;70.30;;;;;;5054878;28;43470;-73
2023/06/24 13:54:24;;;;;;;2.40;2.30;;;24.00;70.10;;;;;;5063567;28;43779;-78
2023/06/24 13:57:18;;;;;;;2.10;2.10;;;24.00;70.00;;;;;;5073391;28;43606;-76
2023/06/24 14:00:25;;;;;;;2.40;2.40;;;23.90;69.70;;;;;;5078815;28;46062;-74
2023/06/24 14:03:37;;;;;;;2.93;2.40;;;23.90;70.30;;;;;;5075248;28;43388;-76
2023/06/24 14:06:29;;;;;;;3.73;2.70;;;23.80;70.20;;;;;;5070172;28;43427;-74